createdAt,value
2018-10-16T00:01:02.931Z,83.34
2018-10-16T00:05:57.381Z,82.48
2018-10-16T00:10:51.800Z,83.59
2018-10-16T00:15:46.244Z,83.76
2018-10-16T00:20:41.441Z,83.74
2018-10-16T00:25:35.894Z,83.59
2018-10-16T00:30:30.373Z,83.47
2018-10-16T00:35:24.820Z,83.74
2018-10-16T00:40:19.244Z,84.59
2018-10-16T00:45:13.692Z,84.18
2018-10-16T00:50:08.589Z,85.06
2018-10-16T00:55:03.090Z,84.74
2018-10-16T00:59:57.492Z,84.41
2018-10-16T01:04:51.916Z,84.54
2018-10-16T01:09:46.357Z,84.69
2018-10-16T01:14:40.764Z,83.64
2018-10-16T01:19:35.246Z,84.30
2018-10-16T01:24:29.769Z,85.24
2018-10-16T01:29:24.240Z,84.28
2018-10-16T01:34:18.663Z,84.28
2018-10-16T01:39:13.141Z,84.40
2018-10-16T01:44:07.652Z,84.58
2018-10-16T01:49:02.066Z,84.42
2018-10-16T01:53:56.496Z,84.54
2018-10-16T01:58:50.904Z,84.16
2018-10-16T02:03:45.320Z,84.71
2018-10-16T02:08:39.729Z,84.10
2018-10-16T02:13:34.197Z,83.72
2018-10-16T02:18:28.636Z,84.09
2018-10-16T02:23:23.082Z,83.78
2018-10-16T02:28:17.512Z,84.58
2018-10-16T02:33:11.964Z,85.29
2018-10-16T02:38:06.482Z,85.37
2018-10-16T02:43:00.917Z,83.99
2018-10-16T02:47:55.328Z,84.11
2018-10-16T02:52:49.715Z,84.58
2018-10-16T02:57:44.168Z,84.68
2018-10-16T03:02:38.604Z,84.64
2018-10-16T03:07:33.052Z,84.31
2018-10-16T03:12:27.505Z,84.38
2018-10-16T03:17:21.988Z,84.73
2018-10-16T03:22:16.410Z,85.35
2018-10-16T03:27:10.828Z,85.00
2018-10-16T03:32:05.500Z,85.38
2018-10-16T03:36:59.924Z,85.87
2018-10-16T03:41:54.372Z,85.05
2018-10-16T03:46:48.780Z,84.89
2018-10-16T03:51:43.204Z,84.42
2018-10-16T03:56:37.648Z,84.68
2018-10-16T04:01:32.068Z,84.64
2018-10-16T04:06:26.464Z,84.88
2018-10-16T04:11:20.976Z,84.85
2018-10-16T04:16:15.384Z,85.58
2018-10-16T04:21:10.662Z,84.82
2018-10-16T04:26:05.284Z,85.12
2018-10-16T04:30:59.688Z,84.63
2018-10-16T04:35:54.172Z,85.04
2018-10-16T04:40:48.642Z,85.05
2018-10-16T04:45:43.077Z,85.74
2018-10-16T04:50:37.536Z,84.79
2018-10-16T04:55:32.021Z,85.59
2018-10-16T05:00:27.339Z,87.00
2018-10-16T05:05:24.176Z,86.56
2018-10-16T05:10:19.636Z,85.12
2018-10-16T05:15:31.293Z,86.16
2018-10-16T05:20:25.860Z,86.27
2018-10-16T05:25:20.430Z,85.53
2018-10-16T05:30:19.819Z,85.67
2018-10-16T05:35:14.556Z,86.16
2018-10-16T05:40:09.964Z,86.82
2018-10-16T05:45:04.673Z,87.61
2018-10-16T05:49:59.250Z,87.71
2018-10-16T05:54:53.848Z,86.60
2018-10-16T05:59:48.324Z,85.45
2018-10-16T06:04:42.853Z,84.27
2018-10-16T06:09:37.337Z,82.76
2018-10-16T06:14:31.796Z,80.81
2018-10-16T06:19:26.846Z,80.20
2018-10-16T06:24:21.507Z,79.29
2018-10-16T06:29:16.116Z,79.16
2018-10-16T06:34:11.659Z,80.12
2018-10-16T06:39:11.214Z,80.09
2018-10-16T06:44:07.559Z,80.02
2018-10-16T06:49:02.805Z,80.54
2018-10-16T06:53:58.120Z,80.14
2018-10-16T06:58:52.676Z,79.31
2018-10-16T07:03:47.309Z,78.53
2018-10-16T07:08:41.992Z,78.03
2018-10-16T07:13:37.381Z,77.26
2018-10-16T07:18:31.850Z,76.47
2018-10-16T07:23:26.782Z,76.46
2018-10-16T07:28:21.372Z,75.61
2018-10-16T07:33:25.005Z,74.81
2018-10-16T07:38:20.922Z,74.17
2018-10-16T07:43:15.614Z,73.80
2018-10-16T07:48:10.884Z,73.33
2018-10-16T07:53:26.846Z,73.26
2018-10-16T07:58:22.082Z,73.67
2018-10-16T08:03:16.576Z,72.88
2018-10-16T08:08:11.185Z,72.49
2018-10-16T08:13:06.160Z,73.81
2018-10-16T08:18:00.745Z,72.61
2018-10-16T08:22:55.256Z,72.50
2018-10-16T08:27:49.987Z,72.62
2018-10-16T08:32:51.147Z,72.19
2018-10-16T08:40:10.232Z,72.18
2018-10-16T08:45:22.667Z,69.44
2018-10-16T08:50:35.157Z,70.14
2018-10-16T08:55:30.222Z,69.55
2018-10-16T09:00:25.563Z,68.75
2018-10-16T09:05:20.463Z,68.07
2018-10-16T09:10:15.591Z,67.57
2018-10-16T09:15:10.920Z,67.43
2018-10-16T09:20:11.356Z,66.97
2018-10-16T09:25:08.087Z,66.04
2018-10-16T09:30:07.708Z,66.14
2018-10-16T09:35:02.248Z,64.49
2018-10-16T09:39:56.723Z,64.00
2018-10-16T09:45:02.466Z,63.68
2018-10-16T09:49:57.709Z,63.54
2018-10-16T09:54:52.450Z,64.10
2018-10-16T09:59:48.280Z,62.74
2018-10-16T10:04:43.586Z,63.17
2018-10-16T10:09:38.652Z,62.76
2018-10-16T10:14:33.585Z,61.72
2018-10-16T10:19:28.070Z,61.21
2018-10-16T10:24:32.390Z,60.88
2018-10-16T10:29:46.062Z,61.09
2018-10-16T10:34:41.736Z,60.67
2018-10-16T10:39:40.768Z,60.33
2018-10-16T10:45:00.989Z,59.30
2018-10-16T10:50:15.089Z,58.36
2018-10-16T10:55:22.273Z,58.42
2018-10-16T11:00:29.933Z,58.18
2018-10-16T11:05:46.765Z,57.45
2018-10-16T11:10:41.473Z,56.57
2018-10-16T11:15:36.257Z,55.82
2018-10-16T11:20:35.645Z,54.27
2018-10-16T11:25:30.148Z,53.47
2018-10-16T11:30:44.437Z,52.84
2018-10-16T11:35:38.980Z,51.58
2018-10-16T11:40:33.419Z,50.52
2018-10-16T11:45:28.544Z,49.62
2018-10-16T11:50:23.109Z,50.41
2018-10-16T11:55:18.061Z,51.13
2018-10-16T12:00:16.884Z,51.61
2018-10-16T12:05:26.524Z,51.44
2018-10-16T12:10:33.028Z,51.60
2018-10-16T12:15:49.837Z,51.70
2018-10-16T12:21:09.468Z,50.62
2018-10-16T12:26:23.052Z,51.80
2018-10-16T12:31:34.526Z,50.66
2018-10-16T12:36:44.201Z,51.00
2018-10-16T12:41:56.508Z,51.21
2018-10-16T12:46:52.359Z,50.81
2018-10-16T12:52:07.539Z,50.15
2018-10-16T12:57:17.739Z,49.14
2018-10-16T13:02:34.852Z,47.74
2018-10-16T13:07:50.636Z,48.94
2018-10-16T13:12:59.716Z,47.51
2018-10-16T13:18:17.346Z,47.22
2018-10-16T13:23:32.468Z,47.43
2018-10-16T13:28:50.714Z,46.03
2018-10-16T13:33:45.532Z,45.81
2018-10-16T13:38:40.196Z,45.63
2018-10-16T13:43:35.202Z,45.28
2018-10-16T13:48:29.804Z,46.50
2018-10-16T13:53:24.401Z,45.89
2018-10-16T13:58:18.868Z,46.26
2018-10-16T14:03:13.522Z,45.34
2018-10-16T14:08:08.081Z,46.04
2018-10-16T14:13:08.069Z,45.41
2018-10-16T14:18:02.612Z,44.36
2018-10-16T14:22:57.213Z,44.40
2018-10-16T14:27:51.719Z,44.46
2018-10-16T14:32:46.242Z,44.34
2018-10-16T14:37:40.897Z,44.58
2018-10-16T14:42:40.488Z,43.77
2018-10-16T14:47:41.325Z,43.26
2018-10-16T14:52:36.360Z,43.30
2018-10-16T14:57:31.466Z,43.55
2018-10-16T15:02:26.278Z,42.68
2018-10-16T15:07:23.819Z,41.41
2018-10-16T15:12:18.409Z,41.31
2018-10-16T15:17:12.949Z,42.30
2018-10-16T15:22:08.357Z,40.12
2018-10-16T15:27:12.009Z,40.82
2018-10-16T15:32:06.827Z,41.41
2018-10-16T15:37:01.912Z,41.94
2018-10-16T15:41:56.375Z,41.90
2018-10-16T15:46:50.861Z,45.70
2018-10-16T15:51:47.880Z,49.88
2018-10-16T15:56:42.456Z,50.63
2018-10-16T16:01:37.007Z,52.33
2018-10-16T16:06:31.510Z,53.05
2018-10-16T16:11:25.948Z,55.72
2018-10-16T16:16:20.657Z,58.35
2018-10-16T16:21:15.449Z,59.61
2018-10-16T16:26:10.094Z,62.45
2018-10-16T16:31:04.572Z,64.34
2018-10-16T16:35:59.080Z,63.98
2018-10-16T16:40:53.505Z,66.21
2018-10-16T16:45:47.896Z,67.10
2018-10-16T16:50:42.370Z,67.57
2018-10-16T16:55:36.771Z,68.57
2018-10-16T17:00:31.226Z,68.70
2018-10-16T17:05:25.718Z,68.30
2018-10-16T17:10:20.140Z,69.57
2018-10-16T17:15:15.950Z,70.08
2018-10-16T17:20:11.546Z,70.84
2018-10-16T17:25:07.421Z,73.12
2018-10-16T17:30:01.767Z,73.97
2018-10-16T17:34:56.216Z,75.70
2018-10-16T17:39:50.696Z,76.29
2018-10-16T17:44:45.177Z,76.35
2018-10-16T17:49:39.644Z,77.44
2018-10-16T17:54:34.051Z,77.39
2018-10-16T17:59:28.544Z,77.46
2018-10-16T18:04:23.093Z,77.47
2018-10-16T18:09:17.545Z,78.18
2018-10-16T18:14:11.940Z,79.08
2018-10-16T18:19:06.634Z,78.34
2018-10-16T18:24:01.141Z,78.05
2018-10-16T18:28:55.576Z,77.24
2018-10-16T18:33:49.999Z,78.77
2018-10-16T18:38:44.552Z,79.20
2018-10-16T18:43:38.973Z,80.36
2018-10-16T18:48:33.450Z,79.84
2018-10-16T18:53:27.845Z,79.02
2018-10-16T18:58:22.361Z,79.81
2018-10-16T19:03:16.772Z,80.34
2018-10-16T19:08:11.222Z,80.70
2018-10-16T19:13:05.824Z,80.32
2018-10-16T19:18:00.284Z,80.15
2018-10-16T19:22:54.698Z,79.65
2018-10-16T19:27:49.150Z,79.41
2018-10-16T19:32:43.569Z,79.68
2018-10-16T19:37:38.020Z,78.87
2018-10-16T19:42:32.498Z,78.98
2018-10-16T19:47:26.940Z,79.71
2018-10-16T19:52:21.372Z,80.49
2018-10-16T19:57:15.799Z,81.38
2018-10-16T20:02:10.232Z,82.34
2018-10-16T20:07:05.061Z,82.85
2018-10-16T20:11:59.492Z,84.01
2018-10-16T20:16:53.922Z,83.09
2018-10-16T20:21:48.344Z,83.12
2018-10-16T20:26:42.752Z,83.64
2018-10-16T20:31:37.374Z,83.37
2018-10-16T20:36:31.976Z,83.49
2018-10-16T20:41:26.356Z,83.89
2018-10-16T20:46:20.864Z,83.91
2018-10-16T20:51:15.319Z,84.68
2018-10-16T20:56:09.750Z,83.73
2018-10-16T21:01:04.204Z,84.50
2018-10-16T21:05:59.057Z,84.61
2018-10-16T21:10:53.339Z,84.44
2018-10-16T21:15:47.764Z,84.03
2018-10-16T21:20:42.191Z,84.39
2018-10-16T21:25:36.636Z,84.35
2018-10-16T21:30:31.048Z,84.28
2018-10-16T21:35:25.503Z,84.63
2018-10-16T21:40:19.937Z,84.89
2018-10-16T21:45:14.433Z,84.97
2018-10-16T21:50:08.843Z,85.52
2018-10-16T21:55:03.313Z,86.21
2018-10-16T21:59:57.747Z,85.56
2018-10-16T22:04:52.240Z,85.80
2018-10-16T22:09:46.744Z,86.31
2018-10-16T22:14:41.186Z,87.17
2018-10-16T22:19:35.624Z,87.52
2018-10-16T22:24:30.048Z,87.99
2018-10-16T22:29:24.512Z,88.39
2018-10-16T22:34:18.906Z,88.37
2018-10-16T22:39:13.316Z,88.31
2018-10-16T22:44:08.450Z,89.17
2018-10-16T22:49:02.917Z,88.72
2018-10-16T22:53:57.296Z,87.84
2018-10-16T22:58:51.697Z,88.13
2018-10-16T23:03:46.134Z,88.56
2018-10-16T23:08:40.536Z,88.95
2018-10-16T23:13:34.932Z,88.46
2018-10-16T23:18:29.332Z,88.41
2018-10-16T23:23:23.748Z,87.02
2018-10-16T23:28:18.138Z,86.68
2018-10-16T23:33:12.535Z,86.35
2018-10-16T23:38:07.044Z,85.84
2018-10-16T23:43:01.578Z,84.02
2018-10-16T23:47:55.941Z,83.96
2018-10-16T23:52:50.344Z,84.07
2018-10-16T23:57:44.745Z,84.17
